Time;durP1;ratioP1;P1;durP2;ratioP2;P2;SDS_P1;SDS_P2;PMS_P1;PMS_P2;Temp;Humidity;BMP_temperature;BMP_pressure;BME280_temperature;BME280_humidity;BME280_pressure;Samples;Min_cycle;Max_cycle;Signal;HPM_P1;HPM_P2
2023/07/04 00:02:20;;;;;;;30.40;17.97;;;14.40;99.90;;;;;;5075751;28;20172;-69
2023/07/04 00:04:48;;;;;;;31.80;21.33;;;14.40;99.90;;;;;;5076023;28;20577;-69
2023/07/04 00:07:15;;;;;;;44.00;30.37;;;14.40;99.90;;;;;;5076384;28;20171;-69
2023/07/04 00:09:43;;;;;;;46.60;26.83;;;14.40;99.90;;;;;;5075764;28;20193;-69
2023/07/04 00:12:10;;;;;;;33.30;24.00;;;14.40;99.90;;;;;;5075484;28;20172;-69
2023/07/04 00:14:38;;;;;;;46.57;30.67;;;14.40;99.90;;;;;;5075763;28;20172;-70
2023/07/04 00:17:05;;;;;;;67.10;41.47;;;14.40;99.90;;;;;;5076258;28;20584;-69
2023/07/04 00:19:33;;;;;;;53.03;37.40;;;14.40;99.90;;;;;;5075133;28;20233;-68
2023/07/04 00:22:00;;;;;;;63.80;42.63;;;14.50;99.90;;;;;;5075600;28;20331;-69
2023/07/04 00:24:28;;;;;;;70.47;43.57;;;14.40;99.90;;;;;;5075548;28;20190;-68
2023/07/04 00:26:56;;;;;;;62.43;42.07;;;14.50;99.90;;;;;;5075252;28;20637;-69
2023/07/04 00:29:23;;;;;;;61.23;38.60;;;14.50;99.90;;;;;;5075316;28;20175;-69
2023/07/04 00:31:51;;;;;;;56.93;37.47;;;14.50;99.90;;;;;;5075254;28;20184;-68
2023/07/04 00:34:20;;;;;;;61.50;39.97;;;14.50;99.90;;;;;;5075424;28;20281;-70
2023/07/04 00:36:49;;;;;;;71.33;40.30;;;14.50;99.90;;;;;;5073955;28;20191;-69
2023/07/04 00:39:16;;;;;;;58.47;39.07;;;14.50;99.90;;;;;;5075057;28;20215;-69
2023/07/04 00:41:44;;;;;;;51.90;35.70;;;14.50;99.90;;;;;;5074939;28;20200;-70
2023/07/04 00:44:22;;;;;;;53.27;36.60;;;14.50;99.90;;;;;;5074843;28;20262;-69
2023/07/04 00:46:54;;;;;;;56.83;37.87;;;14.50;99.90;;;;;;5074946;28;20183;-69
2023/07/04 00:49:26;;;;;;;57.37;36.83;;;14.50;99.90;;;;;;5075026;28;20173;-69
2023/07/04 00:52:08;;;;;;;52.67;35.80;;;14.60;99.90;;;;;;5074754;28;20203;-70
2023/07/04 00:54:52;;;;;;;56.17;36.87;;;14.60;99.90;;;;;;5073570;28;20219;-69
2023/07/04 00:57:25;;;;;;;58.33;36.10;;;14.80;99.90;;;;;;5075221;28;20180;-70
2023/07/04 01:00:00;;;;;;;56.10;36.23;;;14.70;99.90;;;;;;5074634;28;20576;-69
2023/07/04 01:02:33;;;;;;;57.50;36.97;;;14.80;99.90;;;;;;5074560;28;20539;-69
2023/07/04 01:05:03;;;;;;;54.23;36.70;;;14.90;99.90;;;;;;5074995;28;20180;-69
2023/07/04 01:08:03;;;;;;;52.50;34.93;;;14.70;99.90;;;;;;5074481;28;20179;-70
2023/07/04 01:10:38;;;;;;;54.90;35.07;;;14.70;99.90;;;;;;5074527;28;20164;-69
2023/07/04 01:13:06;;;;;;;51.67;34.80;;;14.80;99.90;;;;;;5074450;28;20188;-69
2023/07/04 01:15:36;;;;;;;50.77;33.63;;;14.80;99.90;;;;;;5074572;28;20198;-70
2023/07/04 01:18:03;;;;;;;48.03;32.90;;;14.80;99.90;;;;;;5073933;28;20673;-69
2023/07/04 01:20:32;;;;;;;51.97;32.67;;;14.80;99.90;;;;;;5073994;28;20228;-69
2023/07/04 01:23:21;;;;;;;51.97;32.60;;;14.90;99.90;;;;;;5074108;28;20550;-69
2023/07/04 01:26:03;;;;;;;48.13;31.07;;;14.90;99.90;;;;;;5074152;28;20244;-69
2023/07/04 01:28:31;;;;;;;45.40;30.70;;;14.90;99.90;;;;;;5055841;28;20195;-70
2023/07/04 01:30:59;;;;;;;38.17;27.80;;;15.00;99.90;;;;;;5074191;28;20222;-70
2023/07/04 01:33:26;;;;;;;41.40;27.63;;;15.00;99.90;;;;;;5073859;28;20618;-69
2023/07/04 01:35:54;;;;;;;48.10;27.93;;;15.10;99.90;;;;;;5073907;28;20179;-69
2023/07/04 01:38:22;;;;;;;33.93;23.57;;;15.20;99.90;;;;;;5073637;28;20624;-69
2023/07/04 01:40:49;;;;;;;41.17;26.73;;;15.20;99.90;;;;;;5073947;28;20230;-70
2023/07/04 01:43:17;;;;;;;38.10;24.83;;;15.20;99.90;;;;;;5073619;28;20275;-69
2023/07/04 01:45:45;;;;;;;33.77;24.83;;;15.20;99.90;;;;;;5073914;28;20176;-69
2023/07/04 01:48:13;;;;;;;38.53;25.83;;;15.20;99.90;;;;;;5073815;28;20168;-70
2023/07/04 01:50:41;;;;;;;33.73;24.90;;;15.20;99.90;;;;;;5074149;28;20179;-69
2023/07/04 01:53:08;;;;;;;39.20;24.93;;;15.30;99.90;;;;;;5073093;28;20219;-69
2023/07/04 01:55:35;;;;;;;33.80;22.27;;;15.40;99.90;;;;;;5073711;28;20259;-68
2023/07/04 01:58:03;;;;;;;29.53;20.40;;;15.40;99.90;;;;;;5073414;28;20211;-68
2023/07/04 02:00:31;;;;;;;31.43;20.13;;;15.50;99.90;;;;;;5073336;28;20168;-68
2023/07/04 02:02:59;;;;;;;29.70;19.03;;;15.40;99.90;;;;;;5072016;28;20180;-68
2023/07/04 02:05:27;;;;;;;31.73;21.47;;;15.40;99.90;;;;;;5071894;28;20539;-69
2023/07/04 02:07:54;;;;;;;25.87;19.33;;;15.30;99.90;;;;;;5073744;28;20380;-70
2023/07/04 02:10:22;;;;;;;33.57;21.73;;;15.30;99.90;;;;;;5073134;28;20172;-72
2023/07/04 02:12:49;;;;;;;29.50;21.30;;;15.20;99.90;;;;;;5073158;28;20258;-70
2023/07/04 02:15:17;;;;;;;31.73;21.63;;;15.20;99.90;;;;;;5073178;28;20255;-70
2023/07/04 02:17:44;;;;;;;36.50;24.20;;;15.20;99.90;;;;;;5073308;28;20204;-69
2023/07/04 02:20:12;;;;;;;40.10;25.20;;;15.20;99.90;;;;;;5072995;28;20219;-69
2023/07/04 02:22:43;;;;;;;33.17;24.87;;;15.30;99.90;;;;;;5073346;28;20179;-69
2023/07/04 02:25:11;;;;;;;35.97;25.23;;;15.30;99.90;;;;;;5073017;28;20255;-68
2023/07/04 02:27:39;;;;;;;34.93;24.03;;;15.30;99.90;;;;;;5073235;28;20164;-68
2023/07/04 02:30:07;;;;;;;33.87;24.17;;;15.40;99.90;;;;;;5072931;28;20186;-68
2023/07/04 02:32:35;;;;;;;38.53;25.47;;;15.40;99.90;;;;;;5073275;28;20176;-68
2023/07/04 02:35:02;;;;;;;34.00;23.17;;;15.40;99.90;;;;;;5073161;28;20178;-70
2023/07/04 02:37:30;;;;;;;30.30;21.43;;;15.30;99.90;;;;;;5073326;28;20231;-71
2023/07/04 02:39:58;;;;;;;35.30;22.37;;;15.30;99.90;;;;;;5072813;28;20172;-70
2023/07/04 02:42:26;;;;;;;26.07;18.93;;;15.20;99.90;;;;;;5073001;28;20210;-70
2023/07/04 02:44:53;;;;;;;32.03;19.63;;;15.20;99.90;;;;;;5073275;28;20180;-70
2023/07/04 02:47:26;;;;;;;28.90;18.93;;;15.20;99.90;;;;;;5073220;28;20183;-69
2023/07/04 02:49:53;;;;;;;30.47;21.13;;;15.30;99.90;;;;;;5073214;28;20320;-69
2023/07/04 02:52:22;;;;;;;39.17;24.13;;;15.30;99.90;;;;;;5073042;28;20542;-71
2023/07/04 02:54:49;;;;;;;27.17;19.30;;;15.20;99.90;;;;;;5072950;28;20258;-70
2023/07/04 02:57:18;;;;;;;34.60;19.87;;;15.30;99.90;;;;;;5072895;28;20182;-70
2023/07/04 02:59:45;;;;;;;34.07;20.87;;;15.30;99.90;;;;;;5072974;28;20539;-71
2023/07/04 03:02:13;;;;;;;29.40;18.73;;;15.30;99.90;;;;;;5072936;28;20660;-71
2023/07/04 03:04:40;;;;;;;26.43;17.57;;;15.40;99.90;;;;;;5073051;28;20176;-70
2023/07/04 03:07:08;;;;;;;35.23;19.93;;;15.40;99.90;;;;;;5072779;28;20531;-71
2023/07/04 03:09:35;;;;;;;27.23;19.50;;;15.50;99.90;;;;;;5072940;28;20265;-69
2023/07/04 03:12:03;;;;;;;29.07;19.23;;;15.50;99.90;;;;;;5072708;28;20184;-69
2023/07/04 03:14:30;;;;;;;30.83;19.13;;;15.70;99.90;;;;;;5072760;28;20183;-69
2023/07/04 03:16:57;;;;;;;28.83;20.60;;;15.80;99.90;;;;;;5072822;28;20190;-70
2023/07/04 03:19:25;;;;;;;46.23;26.40;;;15.90;99.90;;;;;;5072459;28;20235;-70
2023/07/04 03:21:52;;;;;;;34.63;24.77;;;16.20;99.90;;;;;;5075658;28;20172;-70
2023/07/04 03:24:20;;;;;;;35.10;25.23;;;16.10;99.90;;;;;;5076777;28;20186;-68
2023/07/04 03:26:48;;;;;;;32.40;22.50;;;15.90;99.90;;;;;;5076660;28;20179;-68
2023/07/04 03:29:15;;;;;;;34.10;23.07;;;15.80;99.90;;;;;;5076813;28;20179;-69
2023/07/04 03:31:42;;;;;;;32.43;23.27;;;15.80;99.90;;;;;;5076367;28;20179;-69
2023/07/04 03:34:10;;;;;;;34.23;22.23;;;15.70;99.90;;;;;;5075133;28;20539;-69
2023/07/04 03:36:37;;;;;;;27.93;21.17;;;15.80;99.90;;;;;;5076377;28;20543;-70
2023/07/04 03:39:05;;;;;;;29.60;21.57;;;15.80;99.90;;;;;;5074793;28;20568;-69
2023/07/04 03:41:33;;;;;;;31.67;22.17;;;15.70;99.90;;;;;;5076409;28;20530;-70
2023/07/04 03:44:01;;;;;;;36.27;21.10;;;15.80;99.90;;;;;;5076385;28;20172;-69
2023/07/04 03:46:28;;;;;;;30.40;20.43;;;15.80;99.90;;;;;;5074977;28;20298;-71
2023/07/04 03:48:56;;;;;;;33.03;21.83;;;15.90;99.90;;;;;;5074921;28;20187;-69
2023/07/04 03:51:24;;;;;;;37.07;22.37;;;15.90;99.90;;;;;;5076143;28;20182;-69
2023/07/04 03:53:51;;;;;;;27.90;20.57;;;15.90;99.90;;;;;;5076027;28;20702;-69
2023/07/04 03:56:19;;;;;;;33.77;20.00;;;15.90;99.90;;;;;;5076247;28;20204;-69
2023/07/04 03:58:46;;;;;;;26.67;19.33;;;15.80;99.90;;;;;;5075850;28;20247;-69
2023/07/04 04:01:13;;;;;;;27.77;18.90;;;15.80;99.90;;;;;;5074661;28;21310;-71
2023/07/04 04:03:41;;;;;;;26.80;19.77;;;15.70;99.90;;;;;;5076281;28;20168;-69
2023/07/04 04:06:09;;;;;;;32.90;22.73;;;15.70;99.90;;;;;;5075889;28;20168;-69
2023/07/04 04:08:37;;;;;;;32.90;24.27;;;15.70;99.90;;;;;;5075970;28;20204;-69
2023/07/04 04:11:04;;;;;;;34.67;24.47;;;15.60;99.90;;;;;;5076061;28;20172;-70
2023/07/04 04:13:32;;;;;;;37.13;24.43;;;15.60;99.90;;;;;;5075535;28;20282;-70
2023/07/04 04:15:59;;;;;;;29.90;21.80;;;15.60;99.90;;;;;;5075745;28;20175;-70
2023/07/04 04:18:26;;;;;;;28.10;18.23;;;15.60;99.90;;;;;;5075675;28;20642;-67
2023/07/04 04:20:54;;;;;;;28.57;16.20;;;15.60;99.90;;;;;;5075601;28;20223;-70
2023/07/04 04:23:22;;;;;;;27.67;14.23;;;15.60;99.90;;;;;;5075549;28;20176;-69
2023/07/04 04:25:50;;;;;;;20.17;13.23;;;15.50;99.90;;;;;;5075747;28;20704;-69
2023/07/04 04:28:17;;;;;;;19.37;13.20;;;15.50;99.90;;;;;;5075386;28;20591;-70
2023/07/04 04:30:45;;;;;;;19.63;13.17;;;15.50;99.90;;;;;;5075499;28;20180;-69
2023/07/04 04:33:12;;;;;;;21.70;14.47;;;15.50;99.90;;;;;;5073871;28;20176;-68
2023/07/04 04:35:40;;;;;;;20.50;13.53;;;15.40;99.90;;;;;;5075403;28;20168;-68
2023/07/04 04:38:10;;;;;;;23.23;13.90;;;15.40;99.90;;;;;;5075155;28;20202;-68
2023/07/04 04:40:37;;;;;;;27.67;17.00;;;15.40;99.90;;;;;;5075120;28;20175;-69
2023/07/04 04:43:05;;;;;;;22.60;14.27;;;15.40;99.90;;;;;;5075012;28;20180;-69
2023/07/04 04:45:32;;;;;;;29.70;19.73;;;15.30;99.90;;;;;;5075229;28;20179;-71
2023/07/04 04:48:01;;;;;;;28.33;18.97;;;15.30;99.90;;;;;;5075126;28;20172;-69
2023/07/04 04:50:32;;;;;;;26.50;18.30;;;15.30;99.90;;;;;;5075221;28;20546;-68
2023/07/04 04:53:00;;;;;;;28.67;17.73;;;15.20;99.90;;;;;;5074940;28;20259;-70
2023/07/04 04:55:28;;;;;;;28.30;19.47;;;15.20;99.90;;;;;;5075512;28;20175;-69
2023/07/04 04:57:56;;;;;;;27.83;19.37;;;15.20;99.90;;;;;;5074806;28;20195;-70
2023/07/04 05:00:24;;;;;;;26.40;18.97;;;15.20;99.90;;;;;;5074673;28;20184;-69
2023/07/04 05:02:51;;;;;;;22.67;17.00;;;15.30;99.90;;;;;;5074919;28;20176;-68
2023/07/04 05:05:18;;;;;;;24.73;15.20;;;15.20;99.90;;;;;;5074856;28;20176;-68
2023/07/04 05:07:46;;;;;;;16.27;12.60;;;15.30;99.90;;;;;;5074665;28;20515;-70
2023/07/04 05:10:15;;;;;;;16.50;11.80;;;15.20;99.90;;;;;;5074586;28;20314;-69
2023/07/04 05:12:42;;;;;;;24.37;13.63;;;15.10;99.90;;;;;;5074602;28;20222;-69
2023/07/04 05:15:10;;;;;;;21.63;13.07;;;15.10;99.90;;;;;;5074587;28;20172;-69
2023/07/04 05:17:37;;;;;;;18.37;12.33;;;15.10;99.90;;;;;;5073063;28;20187;-69
2023/07/04 05:20:05;;;;;;;16.17;11.03;;;15.10;99.90;;;;;;5074058;28;20237;-69
2023/07/04 05:22:33;;;;;;;22.10;12.33;;;15.20;99.90;;;;;;5074330;28;20651;-70
2023/07/04 05:25:01;;;;;;;18.87;12.47;;;15.20;99.90;;;;;;5074269;28;20172;-69
2023/07/04 05:27:28;;;;;;;15.23;11.50;;;15.10;99.90;;;;;;5074360;28;20179;-69
2023/07/04 05:29:55;;;;;;;15.40;11.60;;;15.20;99.90;;;;;;5074233;28;20183;-69
2023/07/04 05:32:23;;;;;;;18.93;11.20;;;15.20;99.90;;;;;;5074293;28;20187;-71
2023/07/04 05:34:50;;;;;;;21.07;11.67;;;15.10;99.90;;;;;;5074233;28;20171;-69
2023/07/04 05:37:18;;;;;;;20.60;11.43;;;15.10;99.90;;;;;;5074104;28;20168;-70
2023/07/04 05:39:45;;;;;;;18.27;12.00;;;15.00;99.90;;;;;;5073767;28;20221;-70
2023/07/04 05:42:13;;;;;;;19.77;11.80;;;15.00;99.90;;;;;;5073950;28;20641;-70
2023/07/04 05:44:40;;;;;;;17.40;12.27;;;15.00;99.90;;;;;;5073703;28;20179;-69
2023/07/04 05:47:08;;;;;;;18.80;12.60;;;15.00;99.90;;;;;;5072437;28;20245;-69
2023/07/04 05:49:35;;;;;;;18.30;11.97;;;15.00;99.90;;;;;;5074052;28;20503;-68
2023/07/04 05:52:03;;;;;;;20.70;12.20;;;14.90;99.90;;;;;;5073985;28;20321;-69
2023/07/04 05:54:30;;;;;;;19.93;12.60;;;14.90;99.90;;;;;;5073714;28;20221;-70
2023/07/04 05:56:57;;;;;;;19.43;12.77;;;14.90;99.90;;;;;;5073865;28;20176;-69
2023/07/04 05:59:25;;;;;;;19.13;12.50;;;14.80;99.90;;;;;;5073497;28;20223;-68
2023/07/04 06:01:53;;;;;;;21.50;13.10;;;14.80;99.90;;;;;;5073439;28;20342;-68
2023/07/04 06:04:20;;;;;;;16.27;11.27;;;14.80;99.90;;;;;;5073527;28;20191;-70
2023/07/04 06:06:52;;;;;;;18.57;11.77;;;14.70;99.90;;;;;;5073449;28;20168;-69
2023/07/04 06:09:22;;;;;;;14.30;11.00;;;14.70;99.90;;;;;;5073619;28;20184;-69
2023/07/04 06:11:50;;;;;;;19.33;13.03;;;14.70;99.90;;;;;;5073506;28;20581;-69
2023/07/04 06:14:26;;;;;;;21.27;12.97;;;14.70;99.90;;;;;;5073613;28;20176;-69
2023/07/04 06:16:57;;;;;;;18.40;12.40;;;14.70;99.90;;;;;;5073240;28;20178;-68
2023/07/04 06:19:26;;;;;;;19.83;13.37;;;14.70;99.90;;;;;;5072917;28;20672;-69
2023/07/04 06:21:53;;;;;;;19.50;11.73;;;14.70;99.90;;;;;;5073246;28;20193;-70
2023/07/04 06:24:21;;;;;;;21.97;14.20;;;14.70;99.90;;;;;;5073617;28;20187;-68
2023/07/04 06:26:49;;;;;;;17.40;11.77;;;14.70;99.90;;;;;;5073097;28;20164;-70
2023/07/04 06:29:16;;;;;;;21.57;12.93;;;14.70;99.90;;;;;;5073151;28;20176;-69
2023/07/04 06:31:43;;;;;;;20.00;13.83;;;14.70;99.90;;;;;;5073090;28;20535;-69
2023/07/04 06:34:11;;;;;;;19.30;11.83;;;14.70;99.90;;;;;;5073077;28;20172;-70
2023/07/04 06:36:39;;;;;;;23.23;14.27;;;14.70;99.90;;;;;;5073151;28;20683;-68
2023/07/04 06:39:06;;;;;;;22.20;13.43;;;14.70;99.90;;;;;;5072901;28;20269;-68
2023/07/04 06:41:34;;;;;;;22.07;13.63;;;14.70;99.90;;;;;;5071744;28;20176;-69
2023/07/04 06:44:01;;;;;;;23.00;13.57;;;14.70;99.90;;;;;;5071686;28;20241;-70
2023/07/04 06:46:28;;;;;;;19.80;13.57;;;14.70;99.90;;;;;;5072949;28;20172;-68
2023/07/04 06:48:56;;;;;;;18.30;13.33;;;14.70;99.90;;;;;;5073232;28;20187;-68
2023/07/04 06:51:26;;;;;;;21.17;13.87;;;14.60;99.90;;;;;;5072624;28;20184;-69
2023/07/04 06:53:53;;;;;;;19.40;13.53;;;14.60;99.90;;;;;;5073125;28;20176;-69
2023/07/04 06:56:23;;;;;;;19.60;13.23;;;14.60;99.90;;;;;;5072067;28;20189;-69
2023/07/04 06:58:54;;;;;;;19.03;13.97;;;14.50;99.90;;;;;;5072715;28;20220;-68
2023/07/04 07:01:26;;;;;;;17.83;12.27;;;14.50;99.90;;;;;;5073092;28;20268;-70
2023/07/04 07:03:54;;;;;;;22.10;14.67;;;14.40;99.90;;;;;;5073059;28;20491;-68
2023/07/04 07:06:22;;;;;;;17.27;13.63;;;14.50;99.90;;;;;;5072953;28;20168;-70
2023/07/04 07:08:49;;;;;;;21.73;14.43;;;14.40;99.90;;;;;;5073435;28;20200;-69
2023/07/04 07:11:19;;;;;;;19.83;14.33;;;14.40;99.90;;;;;;5072793;28;20557;-69
2023/07/04 07:13:46;;;;;;;17.20;13.13;;;14.40;99.90;;;;;;5072588;28;20171;-68
2023/07/04 07:16:24;;;;;;;19.37;14.43;;;14.40;99.90;;;;;;5072632;28;20558;-67
2023/07/04 07:18:54;;;;;;;17.50;11.93;;;14.30;99.90;;;;;;5072197;28;20294;-72
2023/07/04 07:21:26;;;;;;;19.33;12.97;;;14.30;99.90;;;;;;5072597;28;20168;-69
2023/07/04 07:23:54;;;;;;;18.47;12.77;;;14.30;99.90;;;;;;5072980;28;20180;-68
2023/07/04 07:26:23;;;;;;;16.87;12.20;;;14.20;99.90;;;;;;5072754;28;20172;-69
2023/07/04 07:28:51;;;;;;;15.80;11.20;;;14.20;99.90;;;;;;5072670;28;20203;-68
2023/07/04 07:31:20;;;;;;;16.67;11.63;;;14.20;99.90;;;;;;5072489;28;20175;-68
2023/07/04 07:33:49;;;;;;;18.97;11.50;;;14.20;99.90;;;;;;5072697;28;20172;-68
2023/07/04 07:36:23;;;;;;;17.77;11.90;;;14.20;99.90;;;;;;5072644;28;20271;-68
2023/07/04 07:38:52;;;;;;;16.83;11.37;;;14.20;99.90;;;;;;5071040;28;20219;-69
2023/07/04 07:41:22;;;;;;;15.67;12.33;;;14.10;99.90;;;;;;5072461;28;20222;-69
2023/07/04 07:43:50;;;;;;;20.67;12.53;;;14.20;99.90;;;;;;5072753;28;20187;-68
2023/07/04 07:46:18;;;;;;;19.60;12.47;;;14.20;99.90;;;;;;5072567;28;20179;-70
2023/07/04 07:48:48;;;;;;;17.03;11.90;;;14.20;99.90;;;;;;5072576;28;20233;-68
2023/07/04 07:51:15;;;;;;;16.60;11.93;;;14.10;99.90;;;;;;5072591;28;20180;-68
2023/07/04 07:53:45;;;;;;;19.60;12.10;;;14.10;99.90;;;;;;5073133;28;20618;-68
2023/07/04 07:56:14;;;;;;;17.43;11.43;;;14.10;99.90;;;;;;5071303;28;20784;-68
2023/07/04 07:58:42;;;;;;;16.67;11.77;;;14.10;99.90;;;;;;5072159;28;20212;-69
2023/07/04 08:01:15;;;;;;;17.73;11.87;;;14.10;99.90;;;;;;5072422;28;20179;-70
2023/07/04 08:03:43;;;;;;;16.03;11.30;;;14.10;99.90;;;;;;5072690;28;20180;-71
2023/07/04 08:06:26;;;;;;;19.00;13.07;;;14.00;99.90;;;;;;5072728;28;20179;-69
2023/07/04 08:08:55;;;;;;;15.30;11.33;;;14.00;99.90;;;;;;5075898;28;20185;-69
2023/07/04 08:11:23;;;;;;;17.67;11.87;;;14.00;99.90;;;;;;5074530;28;20247;-69
2023/07/04 08:13:51;;;;;;;17.77;11.97;;;14.00;99.90;;;;;;5075869;28;20570;-70
2023/07/04 08:16:30;;;;;;;19.20;11.83;;;14.00;99.90;;;;;;5075998;28;20180;-69
2023/07/04 08:19:02;;;;;;;16.37;11.53;;;14.00;99.90;;;;;;5075563;28;20242;-70
2023/07/04 08:21:29;;;;;;;17.40;11.70;;;14.00;99.90;;;;;;5075797;28;20180;-71
2023/07/04 08:23:58;;;;;;;21.47;14.07;;;14.00;99.90;;;;;;5076290;28;20203;-68
2023/07/04 08:26:27;;;;;;;21.83;14.33;;;14.00;99.90;;;;;;5075777;28;20176;-69
2023/07/04 08:28:56;;;;;;;17.47;12.17;;;14.00;99.90;;;;;;5075576;28;20262;-70
2023/07/04 08:31:24;;;;;;;19.03;12.57;;;14.00;99.90;;;;;;5075475;28;20180;-70
2023/07/04 08:33:51;;;;;;;21.80;14.53;;;14.00;99.90;;;;;;5075725;28;20631;-69
2023/07/04 08:36:19;;;;;;;22.10;15.63;;;14.00;99.90;;;;;;5075475;28;20172;-70
2023/07/04 08:38:48;;;;;;;25.50;18.50;;;14.10;99.90;;;;;;5075541;28;20269;-69
2023/07/04 08:41:36;;;;;;;25.13;16.93;;;14.10;99.90;;;;;;5075256;28;20172;-69
2023/07/04 08:44:07;;;;;;;28.30;18.50;;;14.10;99.90;;;;;;5075589;28;20180;-69
2023/07/04 08:46:38;;;;;;;24.60;16.90;;;14.00;99.90;;;;;;5076044;28;20218;-69
2023/07/04 08:49:10;;;;;;;24.33;17.73;;;14.00;99.90;;;;;;5075208;28;20176;-67
2023/07/04 08:51:46;;;;;;;28.03;18.30;;;14.00;99.90;;;;;;5075149;28;20637;-70
2023/07/04 08:54:13;;;;;;;25.03;16.83;;;14.00;99.90;;;;;;5075303;28;20263;-69
2023/07/04 08:56:41;;;;;;;29.70;19.67;;;14.00;99.90;;;;;;5075335;28;20229;-68
2023/07/04 08:59:26;;;;;;;25.30;17.63;;;14.00;99.90;;;;;;5074834;28;20237;-69
2023/07/04 09:02:29;;;;;;;25.40;17.20;;;14.00;99.90;;;;;;5075047;28;20229;-70
2023/07/04 09:05:27;;;;;;;27.90;17.93;;;14.00;99.90;;;;;;5074941;28;20182;-69
2023/07/04 09:08:13;;;;;;;23.43;16.07;;;14.00;99.90;;;;;;5075087;28;20178;-68
2023/07/04 09:10:43;;;;;;;19.43;14.93;;;14.00;99.90;;;;;;5075200;28;20637;-69
2023/07/04 09:13:16;;;;;;;21.37;15.07;;;14.00;99.90;;;;;;5074931;28;20172;-71
2023/07/04 09:15:47;;;;;;;20.97;15.07;;;13.90;99.90;;;;;;5074814;28;20668;-69
2023/07/04 09:18:56;;;;;;;19.90;14.27;;;13.90;99.90;;;;;;5073810;28;20573;-69
2023/07/04 09:21:26;;;;;;;20.63;14.63;;;13.90;99.90;;;;;;5074539;28;20188;-68
2023/07/04 09:23:56;;;;;;;22.53;14.37;;;13.90;99.90;;;;;;5074654;28;20580;-68
2023/07/04 09:26:27;;;;;;;21.63;14.40;;;13.90;99.90;;;;;;5074734;28;20633;-68
2023/07/04 09:28:57;;;;;;;20.30;15.03;;;13.90;99.90;;;;;;5074460;28;20176;-69
2023/07/04 09:31:30;;;;;;;25.57;14.90;;;13.90;99.90;;;;;;5074426;28;20347;-68
2023/07/04 09:34:01;;;;;;;19.90;15.00;;;13.80;99.90;;;;;;5074668;28;20668;-69
2023/07/04 09:36:33;;;;;;;22.70;15.53;;;13.90;99.90;;;;;;5074369;28;20183;-67
2023/07/04 09:39:05;;;;;;;21.73;15.60;;;13.90;99.90;;;;;;5072758;28;20223;-68
2023/07/04 09:41:34;;;;;;;25.30;16.30;;;13.90;99.90;;;;;;5074217;28;20196;-68
2023/07/04 09:44:28;;;;;;;24.73;15.50;;;13.90;99.90;;;;;;5074736;28;20180;-68
2023/07/04 09:46:59;;;;;;;19.70;14.20;;;13.90;99.90;;;;;;5074196;28;20626;-67
2023/07/04 09:49:30;;;;;;;20.53;14.67;;;13.90;99.90;;;;;;5074024;28;20253;-68
2023/07/04 09:52:05;;;;;;;27.03;16.37;;;14.00;99.90;;;;;;5073998;28;20649;-68
2023/07/04 09:54:38;;;;;;;24.77;16.67;;;14.00;99.90;;;;;;5073961;28;20179;-67
2023/07/04 09:57:30;;;;;;;22.63;14.90;;;14.00;99.90;;;;;;5074069;28;20518;-67
2023/07/04 10:00:23;;;;;;;23.97;15.67;;;14.00;99.90;;;;;;5073795;28;20183;-68
2023/07/04 10:02:56;;;;;;;22.13;14.73;;;14.00;99.90;;;;;;5072670;28;20187;-69
2023/07/04 10:05:27;;;;;;;23.03;14.90;;;14.00;99.90;;;;;;5074180;28;20176;-68
2023/07/04 10:08:21;;;;;;;18.50;13.83;;;14.00;99.90;;;;;;5073683;28;20175;-70
2023/07/04 10:10:55;;;;;;;21.27;13.77;;;14.00;99.90;;;;;;5070755;28;20203;-69
2023/07/04 10:13:40;;;;;;;20.90;14.17;;;14.00;99.90;;;;;;5073627;28;20174;-68
2023/07/04 10:16:23;;;;;;;22.70;14.87;;;14.00;99.90;;;;;;5073300;28;20554;-71
2023/07/04 10:18:51;;;;;;;23.00;14.67;;;13.90;99.90;;;;;;5072961;28;20218;-69
2023/07/04 10:21:19;;;;;;;21.80;14.10;;;13.90;99.90;;;;;;5072004;28;20245;-69
2023/07/04 10:23:47;;;;;;;21.67;15.90;;;13.90;99.90;;;;;;5073513;28;20184;-69
2023/07/04 10:26:16;;;;;;;22.57;14.80;;;14.00;99.90;;;;;;5073535;28;20183;-69
2023/07/04 10:28:43;;;;;;;21.23;14.57;;;14.00;99.90;;;;;;5073259;28;20176;-69
2023/07/04 10:31:18;;;;;;;22.33;15.27;;;14.00;99.90;;;;;;5073035;28;20184;-68
2023/07/04 10:33:59;;;;;;;25.67;15.77;;;14.00;99.90;;;;;;5073295;28;20624;-69
2023/07/04 10:36:31;;;;;;;22.53;15.73;;;14.00;99.90;;;;;;5073077;28;20259;-68
2023/07/04 10:39:08;;;;;;;22.50;16.07;;;14.00;99.90;;;;;;5073088;28;20303;-68
2023/07/04 10:41:53;;;;;;;27.43;17.97;;;14.00;99.90;;;;;;5073287;28;20262;-68
2023/07/04 10:44:23;;;;;;;25.90;17.17;;;14.00;99.90;;;;;;5073146;28;20199;-69
2023/07/04 10:47:04;;;;;;;24.70;15.27;;;14.00;99.90;;;;;;5073021;28;20177;-67
2023/07/04 10:49:37;;;;;;;25.10;15.90;;;14.00;99.90;;;;;;5073399;28;20176;-68
2023/07/04 10:52:16;;;;;;;25.63;17.10;;;14.00;99.90;;;;;;5072906;28;20176;-67
2023/07/04 10:54:43;;;;;;;24.50;16.80;;;14.00;99.90;;;;;;5071708;28;20515;-68
2023/07/04 10:57:33;;;;;;;25.37;16.70;;;14.00;99.90;;;;;;5073085;28;20207;-67
2023/07/04 11:00:31;;;;;;;23.20;15.63;;;14.00;99.90;;;;;;5072861;28;20176;-68
2023/07/04 11:03:13;;;;;;;23.30;17.23;;;13.90;99.90;;;;;;5055504;28;20229;-68
2023/07/04 11:05:49;;;;;;;21.73;15.63;;;13.90;99.90;;;;;;5073010;28;20179;-68
2023/07/04 11:08:21;;;;;;;27.13;16.40;;;13.90;99.90;;;;;;5072715;28;20177;-69
2023/07/04 11:10:57;;;;;;;24.87;16.07;;;13.90;99.90;;;;;;5072860;28;20164;-69
2023/07/04 11:13:25;;;;;;;26.50;17.17;;;13.90;99.90;;;;;;5072864;28;20175;-69
2023/07/04 11:15:58;;;;;;;22.13;16.33;;;13.90;99.90;;;;;;5072776;28;20185;-69
2023/07/04 11:18:30;;;;;;;30.10;20.63;;;14.00;99.90;;;;;;5072481;28;20219;-71
2023/07/04 11:21:20;;;;;;;32.67;21.43;;;14.00;99.90;;;;;;5071249;28;20270;-69
2023/07/04 11:23:51;;;;;;;34.90;21.10;;;14.00;99.90;;;;;;5073005;28;20247;-69
2023/07/04 11:26:21;;;;;;;33.43;20.93;;;14.00;99.90;;;;;;5072851;28;20176;-69
2023/07/04 11:29:06;;;;;;;28.70;18.97;;;14.00;99.90;;;;;;5073129;28;20175;-69
2023/07/04 11:31:34;;;;;;;27.97;19.17;;;14.10;99.90;;;;;;5072600;28;20255;-69
2023/07/04 11:34:07;;;;;;;28.13;18.70;;;14.00;99.90;;;;;;5072514;28;20191;-71
2023/07/04 11:36:56;;;;;;;25.20;17.33;;;14.00;99.90;;;;;;5072712;28;20200;-69
2023/07/04 11:39:31;;;;;;;29.03;18.10;;;14.10;99.90;;;;;;5072188;28;20302;-68
2023/07/04 11:42:09;;;;;;;34.73;19.97;;;14.10;99.90;;;;;;5073911;28;20174;-69
2023/07/04 11:44:56;;;;;;;30.43;19.23;;;14.10;99.90;;;;;;5076347;28;20197;-69
2023/07/04 11:47:44;;;;;;;30.77;19.60;;;14.00;99.90;;;;;;5062917;28;20190;-69
2023/07/04 11:50:21;;;;;;;30.90;19.37;;;14.00;99.90;;;;;;5076202;28;20172;-69
2023/07/04 11:52:56;;;;;;;26.13;17.30;;;13.90;99.90;;;;;;5076139;28;20282;-69
2023/07/04 11:55:30;;;;;;;28.47;18.17;;;13.90;99.90;;;;;;5076269;28;20245;-68
2023/07/04 11:58:17;;;;;;;30.77;19.60;;;13.90;99.90;;;;;;5075809;28;20208;-70
2023/07/04 12:00:50;;;;;;;26.87;16.90;;;13.90;99.90;;;;;;5076048;28;20180;-69
2023/07/04 12:03:17;;;;;;;28.20;17.93;;;13.90;99.90;;;;;;5076088;28;20179;-69
2023/07/04 12:05:50;;;;;;;29.23;18.40;;;13.90;99.90;;;;;;5076342;28;20175;-69
2023/07/04 12:08:24;;;;;;;30.70;18.33;;;13.80;99.90;;;;;;5076152;28;20196;-69
2023/07/04 12:10:56;;;;;;;26.33;18.43;;;13.80;99.90;;;;;;5076380;28;20170;-69
2023/07/04 12:13:24;;;;;;;26.23;17.70;;;13.80;99.90;;;;;;5075849;28;20191;-69
2023/07/04 12:15:56;;;;;;;25.27;16.83;;;13.80;99.90;;;;;;5075779;28;20172;-69
2023/07/04 12:18:28;;;;;;;26.40;16.93;;;13.80;99.90;;;;;;5076204;28;20285;-69
2023/07/04 12:20:58;;;;;;;26.67;16.90;;;13.70;99.90;;;;;;5075492;28;20610;-71
2023/07/04 12:23:26;;;;;;;32.70;19.17;;;13.70;99.90;;;;;;5075690;28;20200;-70
2023/07/04 12:25:59;;;;;;;28.37;19.53;;;13.60;99.90;;;;;;5075996;28;20590;-69
2023/07/04 12:28:29;;;;;;;27.20;18.13;;;13.50;99.90;;;;;;5075791;28;20633;-69
2023/07/04 12:31:06;;;;;;;24.70;16.50;;;13.40;99.90;;;;;;5075617;28;20233;-69
2023/07/04 12:33:40;;;;;;;30.83;17.70;;;13.40;99.90;;;;;;5075738;28;20174;-69
2023/07/04 12:36:13;;;;;;;29.33;17.83;;;13.30;99.90;;;;;;5075400;28;20179;-69
2023/07/04 12:38:48;;;;;;;28.60;18.20;;;13.20;99.90;;;;;;5075393;28;20302;-69
2023/07/04 12:41:22;;;;;;;29.80;18.10;;;13.20;99.90;;;;;;5075276;28;20266;-69
2023/07/04 12:44:03;;;;;;;25.20;15.63;;;13.20;99.90;;;;;;5075474;28;20262;-69
2023/07/04 12:46:33;;;;;;;24.17;16.30;;;13.10;99.90;;;;;;5075349;28;20175;-69
2023/07/04 12:49:02;;;;;;;25.40;16.13;;;13.00;99.90;;;;;;5074002;28;20183;-69